Time;durP1;ratioP1;P1;durP2;ratioP2;P2;SDS_P1;SDS_P2;PMS_P1;PMS_P2;Temp;Humidity;BMP_temperature;BMP_pressure;BME280_temperature;BME280_humidity;BME280_pressure;Samples;Min_cycle;Max_cycle;Signal;HPM_P1;HPM_P2
2021/11/10 00:00:09;;;;;;;55.67;24.70;;;3.90;99.90;;;;;;5073943;28;20221;-61
2021/11/10 00:02:38;;;;;;;46.70;24.10;;;3.90;99.90;;;;;;5067881;28;20216;-61
2021/11/10 00:05:07;;;;;;;56.23;23.93;;;3.80;99.90;;;;;;5049022;28;20220;-61
2021/11/10 00:07:36;;;;;;;53.67;23.90;;;3.90;99.90;;;;;;5064487;28;20823;-61
2021/11/10 00:10:07;;;;;;;50.73;24.90;;;3.90;99.90;;;;;;5049087;28;20249;-61
2021/11/10 00:12:35;;;;;;;49.87;23.60;;;3.80;99.90;;;;;;5061146;28;20212;-61
2021/11/10 00:15:05;;;;;;;51.87;23.83;;;3.80;99.90;;;;;;5059621;28;20728;-61
2021/11/10 00:17:33;;;;;;;55.23;25.20;;;3.80;99.90;;;;;;5061696;28;21054;-61
2021/11/10 00:20:02;;;;;;;67.80;25.37;;;3.80;99.90;;;;;;5061664;28;20224;-61
2021/11/10 00:22:30;;;;;;;46.17;24.37;;;3.80;99.90;;;;;;5065399;28;20232;-61
2021/11/10 00:24:59;;;;;;;53.50;24.47;;;3.80;99.90;;;;;;5064664;28;20196;-61
2021/11/10 00:27:28;;;;;;;47.23;24.27;;;3.70;99.90;;;;;;5064619;28;20821;-61
2021/11/10 00:29:57;;;;;;;55.43;23.67;;;3.70;99.90;;;;;;5064559;28;20267;-61
2021/11/10 00:32:26;;;;;;;51.37;24.17;;;3.60;99.90;;;;;;5065162;28;20271;-61
2021/11/10 00:34:54;;;;;;;50.13;24.00;;;3.50;99.90;;;;;;5063341;28;20810;-61
2021/11/10 00:37:22;;;;;;;50.07;23.70;;;3.40;99.90;;;;;;5076537;28;20246;-61
2021/11/10 00:39:51;;;;;;;44.83;23.23;;;3.30;99.90;;;;;;5080822;28;20196;-61
2021/11/10 00:42:19;;;;;;;47.73;22.70;;;3.20;99.90;;;;;;5060225;28;20227;-61
2021/11/10 00:44:49;;;;;;;51.00;23.00;;;3.20;99.90;;;;;;5063575;28;20192;-61
2021/11/10 00:47:17;;;;;;;53.53;24.17;;;3.10;99.90;;;;;;5061123;28;20671;-61
2021/11/10 00:49:46;;;;;;;48.73;23.33;;;3.00;99.90;;;;;;5064201;28;20227;-61
2021/11/10 00:52:14;;;;;;;56.93;23.33;;;3.00;99.90;;;;;;5064082;28;20507;-61
2021/11/10 00:54:42;;;;;;;44.87;22.43;;;3.00;99.90;;;;;;5062056;28;20281;-61
2021/11/10 00:57:11;;;;;;;51.23;22.93;;;3.00;99.90;;;;;;5066341;28;20192;-61
2021/11/10 00:59:39;;;;;;;41.63;21.50;;;3.00;99.90;;;;;;5042461;28;21330;-61
2021/11/10 01:02:09;;;;;;;52.23;23.40;;;3.00;99.90;;;;;;5060421;28;20200;-61
2021/11/10 01:04:38;;;;;;;48.13;23.13;;;3.10;99.90;;;;;;5044979;28;20216;-62
2021/11/10 01:07:07;;;;;;;55.13;25.33;;;3.10;99.90;;;;;;5081465;28;20203;-61
2021/11/10 01:09:40;;;;;;;54.50;24.67;;;3.10;99.90;;;;;;5062917;28;20196;-61
2021/11/10 01:12:09;;;;;;;53.17;24.73;;;3.20;99.90;;;;;;5063177;28;20200;-61
2021/11/10 01:14:39;;;;;;;49.80;23.90;;;3.20;99.90;;;;;;5042558;28;20271;-61
2021/11/10 01:17:09;;;;;;;50.07;24.67;;;3.10;99.90;;;;;;5063471;28;20279;-61
2021/11/10 01:19:38;;;;;;;51.53;24.77;;;3.10;99.90;;;;;;5075564;28;20236;-61
2021/11/10 01:22:07;;;;;;;52.83;24.10;;;3.00;99.90;;;;;;5063326;28;20188;-61
2021/11/10 01:24:36;;;;;;;49.10;23.67;;;3.00;99.90;;;;;;5045867;28;20246;-61
2021/11/10 01:27:05;;;;;;;61.07;24.47;;;2.90;99.90;;;;;;5042382;28;20192;-62
2021/11/10 01:29:33;;;;;;;50.43;24.27;;;2.80;99.90;;;;;;5080023;28;20192;-61
2021/11/10 01:32:03;;;;;;;47.93;23.93;;;2.80;99.90;;;;;;5064059;28;20204;-61
2021/11/10 01:34:33;;;;;;;52.23;23.77;;;2.70;99.90;;;;;;5062929;28;20196;-61
2021/11/10 01:37:02;;;;;;;46.47;23.57;;;2.70;99.90;;;;;;5061817;28;20283;-61
2021/11/10 01:39:30;;;;;;;50.37;24.23;;;2.60;99.90;;;;;;5064168;28;20668;-61
2021/11/10 01:42:03;;;;;;;48.60;23.90;;;2.50;99.90;;;;;;5064291;28;20233;-61
2021/11/10 01:44:35;;;;;;;43.97;22.80;;;2.50;99.90;;;;;;5062112;28;20234;-61
2021/11/10 01:47:06;;;;;;;48.63;22.27;;;2.50;99.90;;;;;;5047014;28;20200;-61
2021/11/10 01:49:37;;;;;;;67.53;25.23;;;2.60;99.90;;;;;;5047295;28;20196;-61
2021/11/10 01:52:08;;;;;;;56.77;26.70;;;2.70;99.90;;;;;;5063527;28;20200;-61
2021/11/10 01:54:39;;;;;;;51.37;24.30;;;2.70;99.90;;;;;;5068404;28;20434;-61
2021/11/10 01:57:10;;;;;;;54.17;25.20;;;2.60;99.90;;;;;;5064644;28;20200;-62
2021/11/10 01:59:40;;;;;;;52.27;24.37;;;2.60;99.90;;;;;;5043320;28;20230;-61
2021/11/10 02:02:13;;;;;;;48.23;24.30;;;2.70;99.90;;;;;;5046753;28;20200;-61
2021/11/10 02:04:44;;;;;;;57.73;25.20;;;2.60;99.90;;;;;;5062156;28;20926;-61
2021/11/10 02:07:12;;;;;;;53.90;25.07;;;2.60;99.90;;;;;;5062078;28;20279;-61
2021/11/10 02:09:43;;;;;;;48.73;24.40;;;2.50;99.90;;;;;;5064691;28;20196;-61
2021/11/10 02:12:12;;;;;;;61.30;25.13;;;2.50;99.90;;;;;;5063003;28;20279;-61
2021/11/10 02:14:41;;;;;;;52.33;24.07;;;2.40;99.90;;;;;;5045086;28;20205;-61
2021/11/10 02:17:14;;;;;;;50.27;24.20;;;2.30;99.90;;;;;;5056923;28;20232;-61
2021/11/10 02:19:44;;;;;;;48.07;22.97;;;2.30;99.90;;;;;;5068639;28;20279;-61
2021/11/10 02:22:17;;;;;;;43.70;22.83;;;2.20;99.90;;;;;;5081970;28;20250;-61
2021/11/10 02:24:46;;;;;;;48.10;21.83;;;2.20;99.90;;;;;;5050313;28;20295;-61
2021/11/10 02:27:18;;;;;;;64.40;24.23;;;2.10;99.90;;;;;;5063250;28;20277;-61
2021/11/10 02:29:48;;;;;;;51.63;22.70;;;2.10;99.90;;;;;;5063805;28;20198;-61
2021/11/10 02:32:17;;;;;;;47.13;22.67;;;2.00;99.90;;;;;;5067312;28;20228;-61
2021/11/10 02:34:48;;;;;;;46.07;21.47;;;2.00;99.90;;;;;;5067467;28;20195;-61
2021/11/10 02:37:21;;;;;;;50.70;22.77;;;2.00;99.90;;;;;;5069256;28;20212;-62
2021/11/10 02:39:51;;;;;;;53.00;22.67;;;2.00;99.90;;;;;;5065348;28;20205;-61
2021/11/10 02:42:20;;;;;;;40.23;21.07;;;2.10;99.90;;;;;;5065356;28;20196;-61
2021/11/10 02:44:50;;;;;;;48.43;23.80;;;2.00;99.90;;;;;;5068029;28;20398;-61
2021/11/10 02:47:20;;;;;;;48.07;22.83;;;2.00;99.90;;;;;;5066376;28;20279;-61
2021/11/10 02:49:49;;;;;;;42.27;22.10;;;1.90;99.90;;;;;;5067279;28;20737;-61
2021/11/10 02:52:21;;;;;;;52.37;24.57;;;1.80;99.90;;;;;;5066159;28;20211;-61
2021/11/10 02:54:53;;;;;;;46.67;23.33;;;1.90;99.90;;;;;;5045859;28;20231;-61
2021/11/10 02:57:24;;;;;;;55.07;24.67;;;1.90;99.90;;;;;;5063736;28;20196;-61
2021/11/10 02:59:53;;;;;;;51.87;23.07;;;2.00;99.90;;;;;;5062555;28;20196;-61
2021/11/10 03:02:26;;;;;;;56.27;23.70;;;2.00;99.90;;;;;;5067607;28;20237;-61
2021/11/10 03:04:56;;;;;;;50.73;23.67;;;2.10;99.90;;;;;;5049696;28;20213;-61
2021/11/10 03:07:29;;;;;;;48.07;23.80;;;2.20;99.90;;;;;;5067881;28;20196;-61
2021/11/10 03:09:57;;;;;;;54.50;23.97;;;2.30;99.90;;;;;;5061462;28;20211;-61
2021/11/10 03:12:26;;;;;;;50.77;24.17;;;2.30;99.90;;;;;;5065635;28;20196;-61
2021/11/10 03:14:55;;;;;;;54.10;25.37;;;2.20;99.90;;;;;;5061973;28;20283;-61
2021/11/10 03:17:24;;;;;;;53.37;24.63;;;2.20;99.90;;;;;;5066493;28;20200;-61
2021/11/10 03:19:53;;;;;;;57.83;25.20;;;2.10;99.90;;;;;;5067847;28;20204;-61
2021/11/10 03:22:22;;;;;;;55.00;25.40;;;2.10;99.90;;;;;;5065915;28;20208;-61
2021/11/10 03:24:52;;;;;;;53.37;25.53;;;2.20;99.90;;;;;;5080490;28;20212;-61
2021/11/10 03:27:20;;;;;;;58.90;25.53;;;2.20;99.90;;;;;;5065010;28;20197;-61
2021/11/10 03:29:51;;;;;;;51.70;25.40;;;2.20;99.90;;;;;;5047997;28;20203;-61
2021/11/10 03:32:22;;;;;;;56.30;25.73;;;2.20;99.90;;;;;;5063886;28;20286;-61
2021/11/10 03:34:51;;;;;;;57.13;25.70;;;2.20;99.90;;;;;;5068061;28;20211;-61
2021/11/10 03:37:19;;;;;;;53.13;24.27;;;2.10;99.90;;;;;;5064889;28;20195;-61
2021/11/10 03:39:48;;;;;;;53.10;25.43;;;2.10;99.90;;;;;;5058375;28;20193;-61
2021/11/10 03:42:18;;;;;;;59.93;24.33;;;2.10;99.90;;;;;;5066868;28;20258;-61
2021/11/10 03:44:47;;;;;;;46.07;22.83;;;2.00;99.90;;;;;;5065061;28;20213;-61
2021/11/10 03:47:16;;;;;;;52.30;23.70;;;2.00;99.90;;;;;;5066507;28;20196;-61
2021/11/10 03:49:44;;;;;;;52.00;23.87;;;1.90;99.90;;;;;;5061547;28;20206;-61
2021/11/10 03:52:14;;;;;;;46.40;24.17;;;1.90;99.90;;;;;;5065800;28;20279;-61
2021/11/10 03:54:43;;;;;;;53.67;23.73;;;1.90;99.90;;;;;;5062819;28;20196;-61
2021/11/10 03:57:12;;;;;;;52.03;24.10;;;2.00;99.90;;;;;;5059079;28;20200;-61
2021/11/10 03:59:42;;;;;;;53.73;24.97;;;2.00;99.90;;;;;;5045466;28;20192;-61
2021/11/10 04:02:12;;;;;;;60.20;24.30;;;2.00;99.90;;;;;;5061412;28;20193;-61
2021/11/10 04:04:41;;;;;;;56.13;24.10;;;2.00;99.90;;;;;;5046599;28;20220;-61
2021/11/10 04:07:10;;;;;;;56.17;23.83;;;2.10;99.90;;;;;;5065098;28;20250;-61
2021/11/10 04:09:39;;;;;;;48.57;25.27;;;2.10;99.90;;;;;;5065262;28;20208;-62
2021/11/10 04:12:08;;;;;;;62.77;24.90;;;2.00;99.90;;;;;;5066048;28;20287;-61
2021/11/10 04:14:37;;;;;;;54.00;24.30;;;2.10;99.90;;;;;;5065553;28;20207;-61
2021/11/10 04:17:09;;;;;;;53.60;25.33;;;2.10;99.90;;;;;;5047827;28;20259;-61
2021/11/10 04:19:37;;;;;;;51.60;24.03;;;2.10;99.90;;;;;;5064474;28;20261;-61
2021/11/10 04:22:06;;;;;;;55.93;25.17;;;2.10;99.90;;;;;;5065512;28;20735;-61
2021/11/10 04:24:35;;;;;;;53.13;23.63;;;2.00;99.90;;;;;;5043186;28;20227;-61
2021/11/10 04:27:04;;;;;;;51.73;24.20;;;2.00;99.90;;;;;;5063896;28;20191;-61
2021/11/10 04:29:33;;;;;;;57.23;24.67;;;1.90;99.90;;;;;;5062867;28;20207;-61
2021/11/10 04:32:03;;;;;;;52.13;24.17;;;1.90;99.90;;;;;;5042529;28;20204;-61
2021/11/10 04:34:33;;;;;;;49.57;23.37;;;1.90;99.90;;;;;;5064362;28;20197;-61
2021/11/10 04:37:01;;;;;;;50.20;23.33;;;1.90;99.90;;;;;;5045974;28;20204;-61
2021/11/10 04:39:30;;;;;;;54.50;23.57;;;1.80;99.90;;;;;;5064803;28;20219;-61
2021/11/10 04:41:59;;;;;;;47.90;23.80;;;1.70;99.90;;;;;;5063686;28;20267;-61
2021/11/10 04:44:30;;;;;;;55.77;24.43;;;1.70;99.90;;;;;;5062144;28;20245;-61
2021/11/10 04:46:58;;;;;;;47.67;22.67;;;1.70;99.90;;;;;;5065259;28;20192;-61
2021/11/10 04:49:29;;;;;;;51.43;23.13;;;1.60;99.90;;;;;;5063759;28;20270;-61
2021/11/10 04:52:01;;;;;;;48.03;22.80;;;1.50;99.90;;;;;;5058619;28;20208;-61
2021/11/10 04:54:30;;;;;;;51.20;24.20;;;1.50;99.90;;;;;;5067101;28;20196;-61
2021/11/10 04:57:00;;;;;;;46.17;24.40;;;1.50;99.90;;;;;;5043376;28;20188;-61
2021/11/10 04:59:29;;;;;;;60.90;28.33;;;1.50;99.90;;;;;;5062467;28;20200;-61
2021/11/10 05:04:47;;;;;;;55.37;25.57;;;1.50;99.90;;;;;;5060851;28;20219;-61
2021/11/10 05:07:17;;;;;;;58.60;26.77;;;1.50;99.90;;;;;;5046584;28;20241;-61
2021/11/10 05:09:45;;;;;;;59.67;27.93;;;1.50;99.90;;;;;;5077573;28;20195;-61
2021/11/10 05:12:14;;;;;;;67.27;29.70;;;1.50;99.90;;;;;;5061382;28;20200;-61
2021/11/10 05:14:44;;;;;;;54.83;27.50;;;1.60;99.90;;;;;;5063251;28;20212;-61
2021/11/10 05:17:12;;;;;;;58.93;27.80;;;1.60;99.90;;;;;;5059760;28;20302;-61
2021/11/10 05:19:41;;;;;;;51.73;26.10;;;1.60;99.90;;;;;;5045095;28;20195;-61
2021/11/10 05:22:34;;;;;;;54.97;26.27;;;1.50;99.90;;;;;;5047074;28;20685;-61
2021/11/10 05:25:03;;;;;;;52.47;26.37;;;1.50;99.90;;;;;;5063232;28;20219;-61
2021/11/10 05:27:31;;;;;;;58.43;25.63;;;1.50;99.90;;;;;;5059671;28;20203;-61
2021/11/10 05:30:00;;;;;;;53.03;26.03;;;1.40;99.90;;;;;;5060035;28;20203;-61
2021/11/10 05:32:28;;;;;;;62.60;26.37;;;1.30;99.90;;;;;;5063878;28;20232;-61
2021/11/10 05:34:58;;;;;;;69.60;28.50;;;1.30;99.90;;;;;;5045079;28;20200;-61
2021/11/10 05:37:28;;;;;;;69.90;26.83;;;1.40;99.90;;;;;;5060034;28;20193;-61
2021/11/10 05:39:58;;;;;;;64.97;28.37;;;1.40;99.90;;;;;;5061282;28;20203;-61
2021/11/10 05:42:27;;;;;;;65.63;27.20;;;1.40;99.90;;;;;;5060835;28;20196;-61
2021/11/10 05:44:56;;;;;;;63.63;26.97;;;1.40;99.90;;;;;;5044992;28;20539;-61
2021/11/10 05:47:25;;;;;;;61.20;26.20;;;1.30;99.90;;;;;;5058870;28;20201;-61
2021/11/10 05:49:54;;;;;;;57.33;25.57;;;1.20;99.90;;;;;;5062733;28;20200;-61
2021/11/10 05:52:22;;;;;;;60.87;26.67;;;1.10;99.90;;;;;;5059621;28;20287;-61
2021/11/10 05:54:55;;;;;;;53.53;25.07;;;1.10;99.90;;;;;;5065065;28;20207;-61
2021/11/10 05:57:29;;;;;;;60.50;26.37;;;1.00;99.90;;;;;;5064580;28;20563;-61
2021/11/10 05:59:57;;;;;;;53.33;25.17;;;1.00;99.90;;;;;;5068128;28;20278;-61
2021/11/10 06:02:26;;;;;;;58.03;26.37;;;1.00;99.90;;;;;;5062444;28;20219;-61
2021/11/10 06:04:55;;;;;;;62.20;25.43;;;1.00;99.90;;;;;;5051330;28;20180;-61
2021/11/10 06:07:23;;;;;;;63.57;26.33;;;1.00;99.90;;;;;;5063805;28;20224;-61
2021/11/10 06:09:52;;;;;;;66.53;27.53;;;1.10;99.90;;;;;;5071255;28;20230;-61
2021/11/10 06:12:20;;;;;;;62.17;27.53;;;1.10;99.90;;;;;;5071084;28;20228;-61
2021/11/10 06:14:50;;;;;;;66.27;28.50;;;1.10;99.90;;;;;;5045771;28;20199;-61
2021/11/10 06:17:19;;;;;;;70.43;27.53;;;1.20;99.90;;;;;;5066545;28;20188;-61
2021/11/10 06:19:48;;;;;;;56.30;25.40;;;1.20;99.90;;;;;;5077446;28;20200;-61
2021/11/10 06:22:17;;;;;;;63.03;26.17;;;1.10;99.90;;;;;;5063741;28;20246;-61
2021/11/10 06:24:45;;;;;;;64.30;28.10;;;1.00;99.90;;;;;;5080449;28;20600;-61
2021/11/10 06:27:14;;;;;;;59.03;26.27;;;0.90;99.90;;;;;;5065536;28;20200;-61
2021/11/10 06:29:42;;;;;;;63.40;26.43;;;0.90;99.90;;;;;;5072983;28;20198;-61
2021/11/10 06:32:12;;;;;;;60.73;27.43;;;0.80;99.90;;;;;;5064985;28;20196;-61
2021/11/10 06:34:41;;;;;;;57.40;27.70;;;0.80;99.90;;;;;;5074314;28;20205;-61
2021/11/10 06:37:09;;;;;;;77.30;28.57;;;0.80;99.90;;;;;;5071901;28;20208;-61
2021/11/10 06:39:38;;;;;;;64.50;27.43;;;0.90;99.90;;;;;;5064609;28;20207;-61
2021/11/10 06:42:08;;;;;;;70.67;27.13;;;1.20;99.90;;;;;;5068680;28;20189;-61
2021/11/10 06:44:36;;;;;;;63.57;28.40;;;1.30;99.90;;;;;;5067514;28;20267;-61
2021/11/10 06:47:05;;;;;;;66.43;29.30;;;1.40;99.90;;;;;;5071040;28;20269;-61
2021/11/10 06:49:35;;;;;;;67.33;27.37;;;1.40;99.90;;;;;;5065940;28;20192;-61
2021/11/10 06:52:05;;;;;;;59.07;25.23;;;1.50;99.90;;;;;;5063990;28;20224;-61
2021/11/10 06:54:34;;;;;;;62.40;25.93;;;1.60;99.90;;;;;;5061592;28;20715;-61
2021/11/10 06:57:02;;;;;;;59.07;25.73;;;1.70;99.90;;;;;;5063067;28;20196;-61
2021/11/10 06:59:31;;;;;;;61.13;23.80;;;1.70;99.90;;;;;;5045911;28;20192;-61
2021/11/10 07:02:00;;;;;;;56.50;25.57;;;1.80;99.90;;;;;;5043151;28;20223;-61
2021/11/10 07:04:29;;;;;;;59.53;26.60;;;1.90;99.90;;;;;;5062036;28;20207;-61
2021/11/10 07:06:59;;;;;;;62.13;26.23;;;2.00;99.90;;;;;;5040617;28;20506;-60
2021/11/10 07:09:28;;;;;;;59.87;27.67;;;2.10;99.90;;;;;;5068193;28;20326;-61
2021/11/10 07:11:56;;;;;;;58.33;26.43;;;2.20;99.90;;;;;;5066005;28;20281;-61
2021/11/10 07:14:26;;;;;;;55.90;25.93;;;2.20;99.90;;;;;;5066119;28;20188;-61
2021/11/10 07:16:55;;;;;;;54.07;26.20;;;2.10;99.90;;;;;;5067655;28;20256;-61
2021/11/10 07:19:23;;;;;;;55.90;24.23;;;2.00;99.90;;;;;;5077530;28;20200;-61
2021/11/10 07:21:52;;;;;;;63.40;25.63;;;1.90;99.90;;;;;;5052396;28;20211;-61
2021/11/10 07:24:22;;;;;;;62.03;26.00;;;2.00;99.90;;;;;;5068134;28;20504;-61
2021/11/10 07:26:50;;;;;;;60.80;26.70;;;2.10;99.90;;;;;;5070199;28;20218;-61
2021/11/10 07:29:19;;;;;;;59.77;26.03;;;2.10;99.90;;;;;;5052379;28;20188;-61
2021/11/10 07:31:47;;;;;;;58.70;26.60;;;2.10;99.90;;;;;;5052475;28;20207;-61
2021/11/10 07:34:16;;;;;;;67.53;26.63;;;2.20;99.90;;;;;;5052223;28;20273;-61
2021/11/10 07:36:45;;;;;;;57.60;25.90;;;2.30;99.90;;;;;;5064612;28;20214;-61
2021/11/10 07:39:14;;;;;;;61.77;26.03;;;2.40;99.90;;;;;;5046039;28;20204;-61
2021/11/10 07:41:47;;;;;;;68.57;26.60;;;2.40;99.90;;;;;;5044502;28;20191;-61
2021/11/10 07:44:15;;;;;;;59.60;26.07;;;2.40;99.90;;;;;;5062437;28;20276;-61
2021/11/10 07:46:50;;;;;;;63.00;25.90;;;2.50;99.90;;;;;;5067845;28;20216;-62
2021/11/10 07:49:19;;;;;;;63.00;26.60;;;2.50;99.90;;;;;;5067250;28;20225;-61
2021/11/10 07:51:48;;;;;;;53.10;25.80;;;2.60;99.90;;;;;;5065949;28;20262;-61
2021/11/10 07:54:16;;;;;;;60.50;26.23;;;2.70;99.90;;;;;;5043853;28;20196;-61
2021/11/10 07:56:46;;;;;;;52.07;25.57;;;2.80;99.90;;;;;;5047655;28;20317;-61
2021/11/10 07:59:14;;;;;;;55.97;25.30;;;2.80;99.90;;;;;;5063827;28;20208;-61
2021/11/10 08:01:43;;;;;;;52.60;23.57;;;2.80;99.90;;;;;;5064049;28;20260;-61
2021/11/10 08:04:12;;;;;;;51.53;23.00;;;2.80;99.90;;;;;;5061906;28;20276;-61
2021/11/10 08:06:40;;;;;;;55.00;24.50;;;2.80;99.90;;;;;;5066184;28;21131;-61
2021/11/10 08:09:11;;;;;;;56.37;24.80;;;2.80;99.90;;;;;;5063361;28;20193;-61
2021/11/10 08:11:39;;;;;;;60.83;24.40;;;2.80;99.90;;;;;;5061717;28;20200;-61
2021/11/10 08:14:09;;;;;;;55.63;25.53;;;2.80;99.90;;;;;;5060900;28;20617;-61
2021/11/10 08:16:38;;;;;;;49.23;24.33;;;3.00;99.90;;;;;;5063783;28;20744;-61
2021/11/10 08:19:07;;;;;;;48.93;24.23;;;3.00;99.90;;;;;;5063723;28;20257;-61
2021/11/10 08:21:35;;;;;;;49.43;23.90;;;3.00;99.90;;;;;;5047034;28;20188;-61
2021/11/10 08:24:05;;;;;;;56.70;26.07;;;3.00;99.90;;;;;;5061507;28;20737;-61
2021/11/10 08:26:33;;;;;;;57.80;26.60;;;3.00;99.90;;;;;;5065368;28;20192;-61
2021/11/10 08:29:02;;;;;;;65.70;27.77;;;3.10;99.90;;;;;;5042365;28;20207;-61
2021/11/10 08:31:32;;;;;;;57.73;26.87;;;3.20;99.90;;;;;;5062742;28;20241;-61
2021/11/10 08:34:01;;;;;;;56.13;26.37;;;3.30;99.90;;;;;;5066629;28;20678;-61
2021/11/10 08:36:29;;;;;;;61.93;28.77;;;3.50;99.90;;;;;;5064296;28;20607;-61
2021/11/10 08:38:57;;;;;;;64.87;29.50;;;3.50;99.90;;;;;;5064285;28;20674;-60
2021/11/10 08:41:26;;;;;;;58.40;31.07;;;3.60;99.90;;;;;;5068535;28;20753;-61
2021/11/10 08:43:55;;;;;;;68.93;32.63;;;3.70;99.90;;;;;;5050042;28;20584;-61
2021/11/10 08:46:27;;;;;;;67.83;31.07;;;3.90;99.90;;;;;;5043223;28;20278;-61
2021/11/10 08:48:59;;;;;;;65.33;30.13;;;4.00;99.90;;;;;;5063482;28;20923;-61
2021/11/10 08:51:29;;;;;;;54.00;27.63;;;4.10;99.90;;;;;;5064563;28;20192;-61
2021/11/10 08:53:57;;;;;;;56.47;26.10;;;4.30;99.90;;;;;;5048184;28;20286;-61
2021/11/10 08:56:25;;;;;;;63.40;29.17;;;4.50;99.90;;;;;;5066043;28;20602;-61
2021/11/10 08:58:54;;;;;;;63.90;25.97;;;4.60;99.90;;;;;;5066019;28;20589;-61
2021/11/10 09:01:22;;;;;;;53.53;24.97;;;4.80;99.90;;;;;;5063559;28;20188;-61
2021/11/10 09:03:51;;;;;;;48.47;24.73;;;4.90;99.90;;;;;;5061038;28;20204;-62
2021/11/10 09:06:21;;;;;;;52.80;28.30;;;5.00;99.90;;;;;;5064283;28;20275;-61
2021/11/10 09:08:49;;;;;;;52.17;24.40;;;5.10;99.90;;;;;;5059410;28;21879;-61
2021/11/10 09:11:18;;;;;;;47.57;22.43;;;5.20;99.90;;;;;;5064326;28;20575;-61
2021/11/10 09:13:46;;;;;;;50.10;25.07;;;5.40;99.90;;;;;;5067114;28;20196;-61
2021/11/10 09:16:15;;;;;;;50.20;24.03;;;5.50;99.90;;;;;;5027966;28;20564;-61
2021/11/10 09:18:44;;;;;;;38.10;19.73;;;5.50;99.90;;;;;;5062331;28;20261;-61
2021/11/10 09:21:12;;;;;;;47.87;22.30;;;5.50;99.90;;;;;;5065664;28;20688;-61
2021/11/10 09:23:42;;;;;;;62.07;36.13;;;5.60;99.90;;;;;;5064530;28;20555;-61
2021/11/10 09:26:11;;;;;;;84.73;54.27;;;5.60;99.90;;;;;;5062989;28;20663;-61
2021/11/10 09:28:39;;;;;;;37.50;18.67;;;5.60;99.90;;;;;;5065158;28;20693;-61
2021/11/10 09:31:08;;;;;;;36.70;17.37;;;5.70;99.90;;;;;;5051433;28;20854;-62
2021/11/10 09:33:40;;;;;;;33.83;17.57;;;5.80;99.90;;;;;;5052352;28;20204;-61
2021/11/10 09:36:11;;;;;;;39.60;17.47;;;5.90;99.90;;;;;;5048330;28;20196;-61
2021/11/10 09:38:39;;;;;;;37.20;17.93;;;5.90;99.90;;;;;;5063105;28;20246;-62
2021/11/10 09:41:09;;;;;;;40.43;17.83;;;6.00;99.90;;;;;;5066597;28;20227;-61
2021/11/10 09:43:41;;;;;;;37.23;17.50;;;6.00;99.90;;;;;;5066652;28;20232;-61
2021/11/10 09:46:12;;;;;;;38.67;18.50;;;6.10;99.90;;;;;;5068585;28;20216;-63
2021/11/10 09:48:41;;;;;;;32.63;18.27;;;6.20;99.90;;;;;;5066747;28;20620;-63
2021/11/10 09:51:10;;;;;;;36.20;18.67;;;6.20;99.90;;;;;;5065590;28;20666;-63
2021/11/10 09:53:39;;;;;;;36.63;16.60;;;6.30;99.90;;;;;;5064429;28;20295;-63
2021/11/10 09:56:09;;;;;;;29.87;16.60;;;6.50;99.90;;;;;;5067014;28;20273;-63
2021/11/10 09:58:39;;;;;;;41.00;16.37;;;6.60;99.90;;;;;;5047338;28;20243;-62
2021/11/10 10:01:09;;;;;;;35.17;17.30;;;6.80;99.90;;;;;;5063071;28;20604;-62
2021/11/10 10:03:38;;;;;;;29.67;14.67;;;7.00;99.90;;;;;;5065730;28;20204;-62
2021/11/10 10:06:08;;;;;;;34.40;15.57;;;7.20;99.90;;;;;;5065116;28;20690;-63
2021/11/10 10:08:37;;;;;;;35.50;17.17;;;7.20;99.90;;;;;;5064502;28;20297;-63
2021/11/10 10:11:11;;;;;;;30.90;15.17;;;7.30;99.90;;;;;;5064667;28;20801;-62
2021/11/10 10:13:41;;;;;;;31.40;15.63;;;7.60;99.90;;;;;;5067389;28;20199;-62
2021/11/10 10:16:10;;;;;;;29.10;14.30;;;7.70;99.90;;;;;;5067340;28;20698;-62
2021/11/10 10:18:39;;;;;;;35.27;14.53;;;7.80;99.90;;;;;;5067237;28;20249;-62
2021/11/10 10:21:10;;;;;;;27.47;15.07;;;7.90;99.90;;;;;;5069456;28;20705;-62
2021/11/10 10:23:41;;;;;;;25.73;14.33;;;8.00;99.90;;;;;;5067534;28;20212;-63
2021/11/10 10:26:13;;;;;;;29.37;15.20;;;8.10;99.90;;;;;;5050918;28;20245;-62
2021/11/10 10:28:43;;;;;;;25.10;14.20;;;8.30;99.90;;;;;;5069843;28;20282;-62
2021/11/10 10:31:15;;;;;;;28.77;14.33;;;8.40;99.90;;;;;;5065190;28;20214;-62
2021/11/10 10:33:47;;;;;;;29.23;13.80;;;8.60;99.90;;;;;;5067390;28;20204;-62
2021/11/10 10:36:18;;;;;;;32.33;15.50;;;8.60;99.90;;;;;;5068983;28;20258;-62
2021/11/10 10:38:49;;;;;;;30.93;15.10;;;8.70;99.90;;;;;;5066575;28;20204;-63
2021/11/10 10:41:21;;;;;;;31.70;15.20;;;8.70;99.90;;;;;;5052550;28;20198;-63
2021/11/10 10:43:52;;;;;;;28.40;14.60;;;8.70;99.90;;;;;;5063250;28;20234;-62
2021/11/10 10:46:27;;;;;;;25.13;13.63;;;9.00;99.90;;;;;;5065357;28;20204;-62
2021/11/10 10:49:12;;;;;;;32.53;14.77;;;9.10;99.90;;;;;;5065170;28;20222;-62
2021/11/10 10:51:43;;;;;;;25.63;15.37;;;9.20;99.90;;;;;;5061447;28;20287;-62
2021/11/10 10:54:15;;;;;;;28.33;14.57;;;9.30;99.90;;;;;;5067495;28;20229;-63
2021/11/10 10:56:54;;;;;;;28.03;14.33;;;9.30;99.90;;;;;;5052906;28;20203;-63
2021/11/10 10:59:25;;;;;;;31.43;16.50;;;9.50;99.90;;;;;;5062538;28;20249;-62
2021/11/10 11:01:56;;;;;;;36.70;16.07;;;9.60;99.90;;;;;;5047165;28;20227;-62
2021/11/10 11:04:28;;;;;;;29.10;15.00;;;9.80;99.90;;;;;;5047848;28;20253;-62
2021/11/10 11:07:01;;;;;;;31.53;15.00;;;10.00;99.90;;;;;;5065054;28;20208;-62
2021/11/10 11:09:33;;;;;;;30.20;15.07;;;10.10;99.90;;;;;;5065766;28;20212;-63
2021/11/10 11:12:05;;;;;;;29.30;14.40;;;10.10;99.90;;;;;;5063584;28;20793;-63
2021/11/10 11:14:48;;;;;;;25.80;14.57;;;10.20;99.90;;;;;;5068177;28;21159;-63
2021/11/10 11:17:30;;;;;;;29.40;14.57;;;10.40;99.90;;;;;;5047928;28;20204;-62
2021/11/10 11:20:01;;;;;;;33.17;15.00;;;10.60;99.90;;;;;;5046000;28;20799;-62
2021/11/10 11:22:32;;;;;;;23.73;13.90;;;10.60;99.90;;;;;;5042876;28;20254;-62
2021/11/10 11:25:10;;;;;;;30.27;13.63;;;10.70;99.90;;;;;;5048144;28;20201;-62
2021/11/10 11:27:41;;;;;;;25.83;13.57;;;10.80;99.90;;;;;;5043619;28;20224;-62
2021/11/10 11:30:13;;;;;;;25.37;12.90;;;10.80;99.90;;;;;;5043412;28;20213;-63
2021/11/10 11:32:43;;;;;;;26.03;13.83;;;10.90;99.90;;;;;;5044703;28;20254;-62
2021/11/10 11:35:20;;;;;;;26.07;12.83;;;11.10;99.90;;;;;;5041359;28;20201;-62
2021/11/10 11:37:50;;;;;;;24.27;13.40;;;11.30;99.90;;;;;;5044144;28;20212;-62
2021/11/10 11:40:20;;;;;;;22.67;13.60;;;11.30;99.90;;;;;;5040212;28;20184;-63
2021/11/10 11:42:51;;;;;;;28.80;14.67;;;11.40;99.90;;;;;;5042970;28;20215;-63
2021/11/10 11:45:20;;;;;;;29.70;13.77;;;11.50;99.90;;;;;;5045344;28;20204;-63
2021/11/10 11:47:50;;;;;;;22.40;13.63;;;11.60;99.90;;;;;;5045160;28;20203;-63
2021/11/10 11:50:19;;;;;;;22.40;13.40;;;11.80;99.90;;;;;;5075444;28;20213;-62
2021/11/10 11:52:50;;;;;;;36.37;14.47;;;11.80;99.90;;;;;;5045219;28;20201;-63
2021/11/10 11:55:22;;;;;;;24.23;14.63;;;11.70;99.90;;;;;;5037435;28;20216;-63
2021/11/10 11:58:03;;;;;;;26.07;13.17;;;11.80;99.90;;;;;;5039730;28;20197;-63
2021/11/10 12:00:35;;;;;;;29.10;14.30;;;11.80;99.90;;;;;;5042423;28;20192;-62
2021/11/10 12:03:18;;;;;;;27.23;14.90;;;11.90;99.90;;;;;;5047697;28;20597;-62
2021/11/10 12:06:26;;;;;;;29.97;15.33;;;11.90;99.90;;;;;;5045031;28;20208;-63
2021/11/10 12:08:56;;;;;;;29.67;13.70;;;11.90;99.90;;;;;;5040199;28;20304;-63
2021/11/10 12:11:32;;;;;;;27.23;14.13;;;11.80;99.90;;;;;;5073972;28;20263;-62
2021/11/10 12:14:15;;;;;;;21.67;12.50;;;12.20;99.90;;;;;;5043555;28;20231;-62
2021/11/10 12:16:57;;;;;;;25.17;12.47;;;12.20;99.90;;;;;;5057484;28;20293;-62
2021/11/10 12:19:31;;;;;;;21.60;13.53;;;12.30;99.90;;;;;;5044290;28;20191;-62
2021/11/10 12:22:05;;;;;;;25.53;13.53;;;12.20;99.90;;;;;;5060833;28;20773;-63
2021/11/10 12:24:51;;;;;;;21.30;13.17;;;12.20;99.90;;;;;;5060563;28;20862;-62
2021/11/10 12:27:34;;;;;;;22.57;12.93;;;12.30;99.90;;;;;;5064193;28;20192;-62
2021/11/10 12:30:19;;;;;;;25.60;13.00;;;12.40;99.90;;;;;;5029977;28;20885;-63
2021/11/10 12:32:50;;;;;;;26.17;13.63;;;12.60;99.90;;;;;;5065921;28;20207;-62
2021/11/10 12:35:37;;;;;;;27.27;13.00;;;12.60;99.90;;;;;;5061477;28;20207;-63
2021/11/10 12:38:14;;;;;;;21.43;12.83;;;12.70;99.90;;;;;;5044972;28;20191;-62
2021/11/10 12:40:51;;;;;;;23.23;12.43;;;12.70;99.90;;;;;;5064702;28;20195;-62
2021/11/10 12:43:21;;;;;;;24.27;12.20;;;12.70;99.90;;;;;;5079852;28;20270;-63
2021/11/10 12:46:00;;;;;;;25.27;11.37;;;12.70;99.90;;;;;;5058471;28;20196;-63
2021/11/10 12:48:35;;;;;;;21.50;12.40;;;12.70;99.90;;;;;;5040587;28;20337;-62
2021/11/10 12:51:19;;;;;;;20.03;11.77;;;12.80;99.90;;;;;;5067148;28;20661;-62
2021/11/10 12:53:50;;;;;;;18.53;11.57;;;12.80;99.90;;;;;;5047065;28;20204;-63